Time;durP1;ratioP1;P1;durP2;ratioP2;P2;SDS_P1;SDS_P2;PMS_P1;PMS_P2;Temp;Humidity;BMP_temperature;BMP_pressure;BME280_temperature;BME280_humidity;BME280_pressure;Samples;Min_cycle;Max_cycle;Signal;HPM_P1;HPM_P2
2021/12/08 00:02:59;;;;;;;4.10;2.47;;;11.80;53.90;;;;;;20906835;28;20501;-76
2021/12/08 00:13:05;;;;;;;3.60;2.13;;;11.80;54.00;;;;;;20939201;28;20033;-75
2021/12/08 00:23:06;;;;;;;4.00;2.33;;;11.80;54.00;;;;;;20921764;28;20159;-77
2021/12/08 00:33:06;;;;;;;4.20;2.33;;;11.70;54.00;;;;;;20904810;28;20033;-76
2021/12/08 00:43:07;;;;;;;3.42;2.15;;;11.70;54.10;;;;;;20903704;28;20080;-75
2021/12/08 00:53:07;;;;;;;4.03;2.20;;;11.70;54.10;;;;;;20886983;28;20028;-76
2021/12/08 01:03:08;;;;;;;3.03;2.08;;;11.70;54.10;;;;;;20920113;28;20048;-76
2021/12/08 01:13:09;;;;;;;3.70;2.15;;;11.70;54.20;;;;;;20919115;28;20045;-76
2021/12/08 01:23:10;;;;;;;4.05;2.08;;;11.60;54.20;;;;;;20901953;28;20043;-76
2021/12/08 01:33:11;;;;;;;4.93;2.28;;;11.60;54.20;;;;;;20916719;28;20028;-77
2021/12/08 01:43:23;;;;;;;3.45;1.90;;;11.60;54.30;;;;;;20915452;28;20048;-76
2021/12/08 01:53:24;;;;;;;3.63;2.30;;;11.60;54.40;;;;;;20915075;28;20034;-75
2021/12/08 02:03:25;;;;;;;3.22;1.90;;;11.60;54.40;;;;;;20914069;28;20376;-75
2021/12/08 02:13:27;;;;;;;3.40;2.08;;;11.60;54.40;;;;;;20896678;28;20475;-76
2021/12/08 02:23:30;;;;;;;3.72;2.15;;;11.60;54.40;;;;;;20896525;28;20106;-77
2021/12/08 02:54:09;;;;;;;2.58;1.55;;;11.50;54.50;;;;;;20896585;28;20033;-75
2021/12/08 03:04:10;;;;;;;3.22;1.95;;;11.50;54.50;;;;;;20909927;28;20041;-75
2021/12/08 03:14:12;;;;;;;3.50;2.33;;;11.50;54.60;;;;;;20910647;28;20534;-75
2021/12/08 03:24:27;;;;;;;2.28;1.33;;;11.50;54.60;;;;;;20893201;28;20037;-75
2021/12/08 03:34:30;;;;;;;3.00;1.80;;;11.40;54.60;;;;;;20893897;28;20045;-75
2021/12/08 03:44:31;;;;;;;3.42;2.03;;;11.40;54.60;;;;;;20891964;28;20041;-76
2021/12/08 03:54:31;;;;;;;3.42;1.70;;;11.40;54.60;;;;;;20891301;28;20060;-75
2021/12/08 04:04:40;;;;;;;1.52;0.90;;;11.40;54.60;;;;;;20891340;28;20130;-74
2021/12/08 04:14:50;;;;;;;2.78;1.42;;;11.40;54.70;;;;;;20907898;28;20037;-76
2021/12/08 04:24:53;;;;;;;3.53;1.60;;;11.40;54.70;;;;;;20881725;28;20033;-76
2021/12/08 04:34:56;;;;;;;2.47;1.60;;;11.40;54.70;;;;;;20889036;28;20610;-75
2021/12/08 04:45:05;;;;;;;2.03;1.20;;;11.40;54.80;;;;;;20886538;28;20040;-75
2021/12/08 05:15:52;;;;;;;1.40;0.90;;;11.40;54.70;;;;;;20916284;28;20414;-76
2021/12/08 05:25:52;;;;;;;2.03;1.33;;;12.30;53.00;;;;;;20915673;28;20040;-76
2021/12/08 05:35:54;;;;;;;2.58;1.58;;;13.50;50.60;;;;;;20915079;28;20450;-77
2021/12/08 05:45:55;;;;;;;1.65;1.10;;;14.50;48.30;;;;;;20913932;28;20505;-75
2021/12/08 05:55:55;;;;;;;2.08;1.30;;;15.40;46.20;;;;;;20817928;28;20036;-81
2021/12/08 06:05:56;;;;;;;2.10;1.55;;;16.00;44.80;;;;;;20796001;28;20033;-79
2021/12/08 06:15:58;;;;;;;2.63;1.20;;;16.20;44.00;;;;;;20804734;28;20053;-80
2021/12/08 06:25:59;;;;;;;1.77;1.02;;;16.30;43.60;;;;;;20827186;28;20082;-76
2021/12/08 06:36:05;;;;;;;1.48;1.13;;;16.20;43.60;;;;;;20769015;28;20065;-77
2021/12/08 06:46:07;;;;;;;;;;;15.90;43.80;;;;;;20806379;28;20038;-80
2021/12/08 06:56:21;;;;;;;1.88;1.20;;;15.10;45.00;;;;;;20829814;28;19964;-79
2021/12/08 07:16:36;;;;;;;3.38;1.50;;;13.60;48.00;;;;;;20827510;28;20033;-76
2021/12/08 07:26:39;;;;;;;2.13;1.20;;;13.10;49.20;;;;;;20823158;28;20033;-74
2021/12/08 07:36:40;;;;;;;1.63;1.10;;;12.70;50.10;;;;;;20771267;28;20045;-74
2021/12/08 07:46:47;;;;;;;2.53;1.48;;;12.50;50.80;;;;;;20820369;28;20041;-75
2021/12/08 07:56:48;;;;;;;;;;;12.40;51.30;;;;;;20808294;28;20403;-76
2021/12/08 08:06:52;;;;;;;2.10;1.23;;;12.40;51.60;;;;;;20833992;28;19959;-74
2021/12/08 08:16:56;;;;;;;2.25;1.45;;;12.30;51.70;;;;;;20802025;28;20049;-74
2021/12/08 08:26:59;;;;;;;1.73;1.20;;;12.30;51.90;;;;;;20819045;28;20037;-75
2021/12/08 08:37:00;;;;;;;5.13;2.47;;;12.30;52.00;;;;;;20835452;28;20038;-75
2021/12/08 08:47:14;;;;;;;2.67;1.42;;;12.30;52.20;;;;;;20802881;28;20056;-77
2021/12/08 08:57:18;;;;;;;3.05;1.20;;;12.30;52.30;;;;;;20800555;28;20041;-76
2021/12/08 09:07:23;;;;;;;2.08;1.33;;;12.20;52.30;;;;;;20817977;28;20033;-79
2021/12/08 09:17:34;;;;;;;2.33;1.38;;;12.20;52.50;;;;;;20820713;28;20423;-78
2021/12/08 09:27:38;;;;;;;2.17;1.08;;;12.10;52.60;;;;;;20818037;28;20033;-76
2021/12/08 09:37:44;;;;;;;3.28;1.30;;;12.10;52.60;;;;;;20851317;28;20061;-77
2021/12/08 09:47:44;;;;;;;2.60;1.17;;;12.10;52.70;;;;;;20832736;28;20042;-78
2021/12/08 09:57:45;;;;;;;2.90;1.25;;;12.10;52.80;;;;;;20832330;28;20037;-77
2021/12/08 10:07:47;;;;;;;2.85;1.35;;;12.10;52.80;;;;;;20816100;28;20042;-77
2021/12/08 10:17:48;;;;;;;3.28;1.30;;;12.10;52.90;;;;;;20799086;28;20046;-77
2021/12/08 10:28:09;;;;;;;2.53;1.23;;;12.10;53.00;;;;;;20811047;28;20049;-77
2021/12/08 10:38:11;;;;;;;2.45;1.25;;;12.10;53.00;;;;;;20829360;28;20296;-78
2021/12/08 10:48:11;;;;;;;1.92;1.27;;;12.10;53.00;;;;;;20829080;28;20144;-80
2021/12/08 10:58:20;;;;;;;2.40;1.35;;;12.10;53.00;;;;;;20825329;28;20168;-80
2021/12/08 11:08:28;;;;;;;3.10;1.27;;;12.10;53.10;;;;;;20795884;28;20033;-77
2021/12/08 11:18:30;;;;;;;4.28;1.30;;;12.40;52.80;;;;;;21183592;22;20050;-79
2021/12/08 11:28:31;;;;;;;1.20;0.95;;;13.20;50.90;;;;;;20754974;28;20041;-79
2021/12/08 11:38:31;;;;;;;3.00;1.00;;;14.00;49.30;;;;;;20827490;28;20083;-78
2021/12/08 11:48:32;;;;;;;1.75;1.00;;;14.60;47.80;;;;;;20808282;28;20099;-76
2021/12/08 11:58:33;;;;;;;2.42;1.15;;;15.40;46.20;;;;;;20766523;28;20038;-78
2021/12/08 12:08:33;;;;;;;3.22;1.65;;;15.60;45.50;;;;;;20711364;28;20030;-78
2021/12/08 12:18:34;;;;;;;2.28;1.27;;;14.90;46.30;;;;;;20712231;28;20038;-78
2021/12/08 12:28:57;;;;;;;2.88;1.30;;;14.20;47.60;;;;;;20792502;28;20028;-78
2021/12/08 12:39:11;;;;;;;3.17;1.05;;;13.60;48.80;;;;;;20743139;28;20042;-82
2021/12/08 12:49:24;;;;;;;2.20;1.10;;;13.10;49.70;;;;;;20753381;28;20045;-78
2021/12/08 12:59:37;;;;;;;2.25;1.10;;;12.80;50.50;;;;;;20738473;28;20452;-79
2021/12/08 13:09:47;;;;;;;1.98;1.55;;;12.60;51.10;;;;;;20741014;28;20529;-82
2021/12/08 13:19:59;;;;;;;5.88;1.65;;;12.60;51.60;;;;;;20787074;28;20494;-78
2021/12/08 13:30:10;;;;;;;2.13;1.10;;;12.50;51.70;;;;;;20781974;28;20030;-76
2021/12/08 13:40:15;;;;;;;2.70;1.08;;;12.60;51.90;;;;;;20755333;28;20116;-79
2021/12/08 13:50:16;;;;;;;4.18;1.17;;;12.60;51.80;;;;;;20735947;28;20034;-78
2021/12/08 14:00:17;;;;;;;2.63;1.10;;;12.60;51.80;;;;;;20736702;28;20064;-79
2021/12/08 14:10:33;;;;;;;2.83;1.30;;;12.60;51.90;;;;;;20750394;28;20056;-78
2021/12/08 14:20:34;;;;;;;2.03;1.10;;;12.60;52.00;;;;;;20718578;28;20034;-78
2021/12/08 14:30:35;;;;;;;3.63;1.45;;;12.60;52.10;;;;;;20734551;28;20614;-76
2021/12/08 14:40:36;;;;;;;2.58;1.13;;;12.60;52.20;;;;;;20748248;28;20117;-77
2021/12/08 14:50:37;;;;;;;3.15;1.30;;;12.50;52.50;;;;;;20763377;28;20423;-74
2021/12/08 15:00:39;;;;;;;2.20;1.30;;;12.40;52.60;;;;;;20731874;28;20037;-75
2021/12/08 15:10:40;;;;;;;2.20;1.38;;;12.30;52.80;;;;;;20730167;28;20827;-75
2021/12/08 15:20:45;;;;;;;3.38;1.67;;;12.20;53.10;;;;;;20731246;28;20045;-77
2021/12/08 15:30:55;;;;;;;3.63;1.60;;;12.10;53.20;;;;;;20748703;28;20045;-76
2021/12/08 15:40:56;;;;;;;3.55;2.05;;;12.10;53.60;;;;;;20783471;28;20045;-76
2021/12/08 15:51:03;;;;;;;2.47;1.50;;;12.50;53.10;;;;;;20744815;28;20040;-80
2021/12/08 16:01:04;;;;;;;3.42;2.10;;;13.30;51.20;;;;;;20813389;28;20047;-73
2021/12/08 16:11:05;;;;;;;3.75;2.03;;;14.20;49.40;;;;;;20692369;28;20377;-74
2021/12/08 16:21:08;;;;;;;6.68;2.65;;;15.00;47.70;;;;;;20750544;28;20038;-75
2021/12/08 16:31:09;;;;;;;3.92;2.08;;;15.50;46.30;;;;;;20752249;28;20044;-74
2021/12/08 16:51:32;;;;;;;3.58;2.17;;;15.80;45.20;;;;;;20760611;28;20113;-71
2021/12/08 17:01:33;;;;;;;4.05;2.13;;;15.80;44.90;;;;;;20737449;28;20124;-75
2021/12/08 17:11:35;;;;;;;5.82;2.92;;;15.60;45.10;;;;;;20735396;28;20038;-76
2021/12/08 17:21:40;;;;;;;5.85;2.65;;;14.90;46.30;;;;;;20814139;28;20045;-76
2021/12/08 17:31:42;;;;;;;6.63;2.67;;;14.10;47.80;;;;;;20831143;28;20033;-78
2021/12/08 17:41:45;;;;;;;6.65;3.42;;;13.40;49.10;;;;;;20777343;28;20113;-76
2021/12/08 17:51:46;;;;;;;4.53;2.60;;;12.90;50.30;;;;;;20735507;28;20034;-74
2021/12/08 18:01:46;;;;;;;6.28;3.35;;;12.60;51.30;;;;;;20733924;28;20076;-77
2021/12/08 18:11:47;;;;;;;5.28;3.17;;;12.30;52.00;;;;;;20736525;28;20041;-73
2021/12/08 18:21:47;;;;;;;3.90;2.30;;;12.20;52.40;;;;;;20710636;28;20480;-73
2021/12/08 18:31:48;;;;;;;4.00;2.13;;;12.20;52.60;;;;;;20799200;28;20289;-73
2021/12/08 18:41:49;;;;;;;3.92;2.55;;;12.20;52.80;;;;;;20806559;28;20052;-73
2021/12/08 18:51:49;;;;;;;5.68;2.70;;;12.20;52.80;;;;;;20773622;28;20030;-74
2021/12/08 19:01:51;;;;;;;6.80;2.17;;;12.30;52.90;;;;;;20740420;28;20662;-74
2021/12/08 19:11:51;;;;;;;6.10;2.38;;;12.30;52.80;;;;;;20708283;28;20296;-75
2021/12/08 19:21:52;;;;;;;4.03;2.15;;;12.40;52.80;;;;;;20729831;28;20056;-72
2021/12/08 19:31:53;;;;;;;5.35;2.53;;;12.40;52.80;;;;;;20746537;28;20033;-73
2021/12/08 19:41:53;;;;;;;4.60;2.05;;;12.30;52.80;;;;;;20776155;28;20443;-72
2021/12/08 19:51:54;;;;;;;4.57;2.58;;;12.30;52.80;;;;;;20751435;28;20391;-73
2021/12/08 20:01:56;;;;;;;4.10;2.15;;;12.30;52.90;;;;;;20794531;28;20484;-72
2021/12/08 20:11:58;;;;;;;5.55;2.45;;;12.30;52.90;;;;;;20736027;28;20071;-73
2021/12/08 20:21:59;;;;;;;4.70;2.25;;;12.30;53.00;;;;;;20769510;28;20220;-73
2021/12/08 20:32:00;;;;;;;3.87;2.37;;;12.20;53.00;;;;;;20734553;28;20477;-72
2021/12/08 20:42:02;;;;;;;4.88;2.13;;;12.20;53.10;;;;;;20718259;28;20304;-74
2021/12/08 20:52:04;;;;;;;3.70;2.30;;;12.20;53.10;;;;;;20701698;28;20054;-73
2021/12/08 21:02:08;;;;;;;5.07;2.92;;;12.20;53.20;;;;;;20717043;28;20034;-73
2021/12/08 21:12:09;;;;;;;3.83;2.38;;;12.20;53.20;;;;;;20698465;28;20030;-73
2021/12/08 21:22:10;;;;;;;4.50;2.25;;;12.20;53.30;;;;;;20715226;28;20492;-73
2021/12/08 21:32:10;;;;;;;9.87;2.40;;;12.20;53.30;;;;;;20731765;28;20046;-73
2021/12/08 21:42:12;;;;;;;4.57;2.00;;;12.10;53.30;;;;;;20730502;28;20695;-73
2021/12/08 21:52:14;;;;;;;4.95;2.00;;;12.20;53.40;;;;;;20730174;28;20029;-73
2021/12/08 22:02:15;;;;;;;4.05;2.10;;;12.10;53.40;;;;;;20712750;28;20048;-73
2021/12/08 22:12:15;;;;;;;3.58;2.50;;;12.10;53.40;;;;;;20729733;28;20112;-74
2021/12/08 22:22:18;;;;;;;5.90;2.97;;;12.10;53.50;;;;;;20743682;28;20033;-73
2021/12/08 22:32:19;;;;;;;3.25;2.50;;;12.10;53.50;;;;;;20742798;28;20080;-73
2021/12/08 22:42:20;;;;;;;4.82;2.63;;;12.00;53.50;;;;;;20740958;28;20193;-73
2021/12/08 22:52:20;;;;;;;3.83;2.15;;;12.00;53.60;;;;;;20743499;28;20034;-73
2021/12/08 23:02:21;;;;;;;4.28;2.40;;;12.00;53.60;;;;;;20724650;28;20440;-73
2021/12/08 23:12:21;;;;;;;4.82;2.72;;;12.00;53.60;;;;;;20724233;28;20373;-74
2021/12/08 23:22:22;;;;;;;3.45;2.20;;;12.00;53.70;;;;;;20724540;28;20060;-73
2021/12/08 23:32:23;;;;;;;3.28;2.35;;;12.00;53.70;;;;;;20739605;28;20754;-74
2021/12/08 23:42:23;;;;;;;3.60;2.38;;;12.00;53.70;;;;;;20722933;28;20034;-73
2021/12/08 23:52:24;;;;;;;4.95;2.75;;;11.90;53.70;;;;;;20738703;28;20044;-73
